createdAt,value
2017-05-30T00:00:17.529Z,1012
2017-05-30T00:01:19.875Z,1012
2017-05-30T00:02:23.094Z,1012
2017-05-30T00:03:25.941Z,1012
2017-05-30T00:04:28.785Z,1012
2017-05-30T00:05:32.391Z,1011.9
2017-05-30T00:06:34.734Z,1011.9
2017-05-30T00:07:37.949Z,1011.9
2017-05-30T00:08:40.602Z,1011.9
2017-05-30T00:09:43.954Z,1011.9
2017-05-30T00:10:47.106Z,1011.9
2017-05-30T00:11:49.955Z,1011.9
2017-05-30T00:12:52.800Z,1011.9
2017-05-30T00:13:55.665Z,1011.9
2017-05-30T00:14:58.517Z,1011.8
2017-05-30T00:16:01.627Z,1011.9
2017-05-30T00:17:04.338Z,1011.9
2017-05-30T00:18:07.686Z,1011.8
2017-05-30T00:19:10.534Z,1011.8
2017-05-30T00:20:13.252Z,1011.8
2017-05-30T00:21:16.857Z,1011.8
2017-05-30T00:22:19.199Z,1011.8
2017-05-30T00:23:22.544Z,1011.8
2017-05-30T00:24:25.386Z,1011.9
2017-05-30T00:25:28.235Z,1011.8
2017-05-30T00:26:31.332Z,1011.9
2017-05-30T00:27:34.046Z,1011.9
2017-05-30T00:28:37.394Z,1011.9
2017-05-30T00:29:40.239Z,1011.9
2017-05-30T00:30:43.089Z,1011.9
2017-05-30T00:31:46.199Z,1011.9
2017-05-30T00:32:49.085Z,1011.9
2017-05-30T00:33:51.930Z,1011.9
2017-05-30T00:34:55.147Z,1011.9
2017-05-30T00:35:58.005Z,1011.8
2017-05-30T00:37:01.099Z,1011.8
2017-05-30T00:38:03.826Z,1011.8
2017-05-30T00:39:06.672Z,1011.8
2017-05-30T00:40:10.029Z,1011.8
2017-05-30T00:42:16.044Z,1011.8
2017-05-30T00:43:18.757Z,1011.8
2017-05-30T00:44:21.602Z,1011.8
2017-05-30T00:45:24.448Z,1011.8
2017-05-30T00:46:27.666Z,1011.8
2017-05-30T00:47:31.011Z,1011.8
2017-05-30T00:48:33.356Z,1011.8
2017-05-30T00:49:36.709Z,1011.8
2017-05-30T00:50:39.555Z,1011.8
2017-05-30T00:51:42.404Z,1011.8
2017-05-30T00:52:45.510Z,1011.8
2017-05-30T00:53:48.357Z,1011.8
2017-05-30T00:54:51.219Z,1011.8
2017-05-30T00:55:54.067Z,1011.8
2017-05-30T00:56:57.282Z,1011.8
2017-05-30T00:58:00.296Z,1011.7
2017-05-30T00:59:03.008Z,1011.8
2017-05-30T01:00:06.354Z,1011.7
2017-05-30T01:02:12.116Z,1011.7
2017-05-30T01:03:15.081Z,1011.7
2017-05-30T01:04:17.927Z,1011.7
2017-05-30T01:05:20.772Z,1011.7
2017-05-30T01:06:23.992Z,1011.7
2017-05-30T01:07:26.841Z,1011.7
2017-05-30T01:08:29.861Z,1011.7
2017-05-30T01:09:32.710Z,1011.7
2017-05-30T01:10:35.558Z,1011.7
2017-05-30T01:11:38.910Z,1011.7
2017-05-30T01:12:41.627Z,1011.7
2017-05-30T01:13:44.787Z,1011.6
2017-05-30T01:14:47.640Z,1011.6
2017-05-30T01:15:50.489Z,1011.6
2017-05-30T01:17:56.259Z,1011.6
2017-05-30T01:18:59.864Z,1011.6
2017-05-30T01:20:02.268Z,1011.6
2017-05-30T01:21:05.493Z,1011.6
2017-05-30T01:22:08.332Z,1011.6
2017-05-30T01:23:11.049Z,1011.6
2017-05-30T01:25:17.429Z,1011.6
2017-05-30T01:26:19.821Z,1011.6
2017-05-30T01:27:23.041Z,1011.6
2017-05-30T01:28:25.887Z,1011.6
2017-05-30T01:29:29.105Z,1011.6
2017-05-30T01:30:32.065Z,1011.6
2017-05-30T01:31:34.916Z,1011.6
2017-05-30T01:32:37.763Z,1011.6
2017-05-30T01:33:40.614Z,1011.5
2017-05-30T01:34:43.830Z,1011.5
2017-05-30T01:35:46.800Z,1011.5
2017-05-30T01:36:49.650Z,1011.5
2017-05-30T01:37:52.500Z,1011.5
2017-05-30T01:38:55.353Z,1011.4
2017-05-30T01:39:58.210Z,1011.4
2017-05-30T01:41:01.881Z,1011.4
2017-05-30T01:42:04.226Z,1011.4
2017-05-30T01:43:07.072Z,1011.4
2017-05-30T01:44:10.426Z,1011.4
2017-05-30T01:45:13.274Z,1011.4
2017-05-30T01:46:16.237Z,1011.4
2017-05-30T01:48:21.998Z,1011.3
2017-05-30T01:49:24.847Z,1011.4
2017-05-30T01:50:28.195Z,1011.4
2017-05-30T01:51:31.164Z,1011.4
2017-05-30T01:52:33.878Z,1011.4
2017-05-30T01:53:36.594Z,1011.4
2017-05-30T01:55:42.865Z,1011.4
2017-05-30T01:56:45.968Z,1011.4
2017-05-30T01:57:48.687Z,1011.3
2017-05-30T01:58:51.589Z,1011.3
2017-05-30T01:59:54.301Z,1011.3
2017-05-30T02:00:57.523Z,1011.3
2017-05-30T02:02:00.621Z,1011.3
2017-05-30T02:03:03.331Z,1011.3
2017-05-30T02:04:06.043Z,1011.3
2017-05-30T02:05:09.399Z,1011.3
2017-05-30T02:06:11.979Z,1011.3
2017-05-30T02:07:15.580Z,1011.3
2017-05-30T02:08:17.931Z,1011.3
2017-05-30T02:09:21.155Z,1011.3
2017-05-30T02:11:26.917Z,1011.3
2017-05-30T02:12:30.015Z,1011.3
2017-05-30T02:13:32.863Z,1011.3
2017-05-30T02:14:35.714Z,1011.3
2017-05-30T02:15:38.563Z,1011.3
2017-05-30T02:16:41.791Z,1011.3
2017-05-30T02:17:44.888Z,1011.3
2017-05-30T02:18:47.730Z,1011.3
2017-05-30T02:19:50.576Z,1011.3
2017-05-30T02:20:53.417Z,1011.3
2017-05-30T02:21:56.307Z,1011.2
2017-05-30T02:22:59.458Z,1011.3
2017-05-30T02:24:02.311Z,1011.3
2017-05-30T02:25:05.171Z,1011.2
2017-05-30T02:26:08.018Z,1011.2
2017-05-30T02:27:10.866Z,1011.3
2017-05-30T02:28:14.463Z,1011.3
2017-05-30T02:29:16.810Z,1011.2
2017-05-30T02:30:20.029Z,1011.2
2017-05-30T02:31:22.745Z,1011.3
2017-05-30T02:32:25.587Z,1011.2
2017-05-30T02:33:29.191Z,1011.3
2017-05-30T02:34:31.539Z,1011.3
2017-05-30T02:35:34.389Z,1011.3
2017-05-30T02:36:37.746Z,1011.2
2017-05-30T02:37:40.598Z,1011.2
2017-05-30T02:38:43.703Z,1011.3
2017-05-30T02:39:46.420Z,1011.2
2017-05-30T02:40:49.133Z,1011.3
2017-05-30T02:41:51.982Z,1011.3
2017-05-30T02:42:55.332Z,1011.3
2017-05-30T02:43:58.431Z,1011.3
2017-05-30T02:45:00.802Z,1011.3
2017-05-30T02:46:04.156Z,1011.3
2017-05-30T02:47:07.003Z,1011.3
2017-05-30T02:48:09.849Z,1011.3
2017-05-30T02:49:12.951Z,1011.3
2017-05-30T02:50:15.799Z,1011.3
2017-05-30T02:51:18.513Z,1011.3
2017-05-30T02:52:21.357Z,1011.3
2017-05-30T02:53:24.715Z,1011.3
2017-05-30T02:54:27.546Z,1011.3
2017-05-30T02:55:30.408Z,1011.3
2017-05-30T02:56:33.248Z,1011.3
2017-05-30T02:57:36.457Z,1011.3
2017-05-30T02:58:39.302Z,1011.3
2017-05-30T03:00:45.222Z,1011.3
2017-05-30T03:01:48.063Z,1011.4
2017-05-30T03:03:53.825Z,1011.3
2017-05-30T03:04:56.534Z,1011.4
2017-05-30T03:06:00.135Z,1011.4
2017-05-30T03:07:02.479Z,1011.4
2017-05-30T03:08:05.827Z,1011.4
2017-05-30T03:09:08.667Z,1011.4
2017-05-30T03:10:11.512Z,1011.4
2017-05-30T03:11:14.600Z,1011.4
2017-05-30T03:12:17.441Z,1011.4
2017-05-30T03:13:20.283Z,1011.4
2017-05-30T03:14:22.994Z,1011.4
2017-05-30T03:15:26.346Z,1011.4
2017-05-30T03:16:29.442Z,1011.4
2017-05-30T03:17:31.833Z,1011.4
2017-05-30T03:19:37.588Z,1011.4
2017-05-30T03:20:40.932Z,1011.4
2017-05-30T03:21:44.021Z,1011.5
2017-05-30T03:22:46.867Z,1011.5
2017-05-30T03:23:49.713Z,1011.5
2017-05-30T03:24:52.561Z,1011.5
2017-05-30T03:25:55.401Z,1011.6
2017-05-30T03:26:58.496Z,1011.6
2017-05-30T03:28:01.339Z,1011.5
2017-05-30T03:29:04.049Z,1011.6
2017-05-30T03:30:06.940Z,1011.6
2017-05-30T03:31:09.880Z,1011.6
2017-05-30T03:32:13.478Z,1011.6
2017-05-30T03:33:15.833Z,1011.6
2017-05-30T03:34:18.978Z,1011.6
2017-05-30T03:35:21.625Z,1011.6
2017-05-30T03:36:24.848Z,1011.5
2017-05-30T03:37:27.688Z,1011.5
2017-05-30T03:38:30.395Z,1011.6
2017-05-30T03:39:33.741Z,1011.6
2017-05-30T03:40:36.451Z,1011.6
2017-05-30T03:41:39.158Z,1011.6
2017-05-30T03:42:42.755Z,1011.6
2017-05-30T03:43:45.103Z,1011.6
2017-05-30T03:44:48.454Z,1011.6
2017-05-30T03:45:51.299Z,1011.7
2017-05-30T03:46:54.010Z,1011.6
2017-05-30T03:47:57.476Z,1011.6
2017-05-30T03:48:59.834Z,1011.6
2017-05-30T03:50:02.675Z,1011.6
2017-05-30T03:51:05.950Z,1011.6
2017-05-30T03:52:08.794Z,1011.6
2017-05-30T03:53:12.122Z,1011.6
2017-05-30T03:54:14.827Z,1011.6
2017-05-30T03:55:17.672Z,1011.6
2017-05-30T03:56:20.513Z,1011.6
2017-05-30T03:57:23.349Z,1011.6
2017-05-30T03:58:26.435Z,1011.7
2017-05-30T03:59:29.143Z,1011.6
2017-05-30T04:00:32.488Z,1011.7
2017-05-30T04:01:35.378Z,1011.6
2017-05-30T04:02:38.216Z,1011.6
2017-05-30T04:03:41.327Z,1011.5
2017-05-30T04:04:44.179Z,1011.6
2017-05-30T04:05:47.022Z,1011.6
2017-05-30T04:06:49.861Z,1011.6
2017-05-30T04:07:53.077Z,1011.6
2017-05-30T04:08:56.238Z,1011.5
2017-05-30T04:09:59.084Z,1011.5
2017-05-30T04:11:01.926Z,1011.5
2017-05-30T04:12:04.770Z,1011.5
2017-05-30T04:13:07.610Z,1011.6
2017-05-30T04:14:11.120Z,1011.5
2017-05-30T04:15:13.828Z,1011.6
2017-05-30T04:16:16.670Z,1011.6
2017-05-30T04:17:19.513Z,1011.5
2017-05-30T04:18:22.360Z,1011.6
2017-05-30T04:19:26.012Z,1011.6
2017-05-30T04:20:28.352Z,1011.6
2017-05-30T04:21:31.429Z,1011.6
2017-05-30T04:22:34.506Z,1011.6
2017-05-30T04:23:37.211Z,1011.6
2017-05-30T04:24:40.858Z,1011.6
2017-05-30T04:25:43.253Z,1011.6
2017-05-30T04:26:46.101Z,1011.6
2017-05-30T04:28:52.366Z,1011.5
2017-05-30T04:29:55.517Z,1011.6
2017-05-30T04:30:58.364Z,1011.5
2017-05-30T04:32:01.203Z,1011.6
2017-05-30T04:33:04.087Z,1011.6
2017-05-30T04:34:06.926Z,1011.6
2017-05-30T04:35:10.393Z,1011.6
2017-05-30T04:36:13.096Z,1011.6
2017-05-30T04:37:15.937Z,1011.6
2017-05-30T04:38:19.146Z,1011.5
2017-05-30T04:39:22.224Z,1011.5
2017-05-30T04:40:25.317Z,1011.5
2017-05-30T04:41:28.159Z,1011.5
2017-05-30T04:42:31.237Z,1011.5
2017-05-30T04:43:33.949Z,1011.5
2017-05-30T04:44:37.167Z,1011.6
2017-05-30T04:45:40.189Z,1011.6
2017-05-30T04:46:43.086Z,1011.5
2017-05-30T04:47:45.934Z,1011.6
2017-05-30T04:48:48.781Z,1011.5
2017-05-30T04:49:52.125Z,1011.5
2017-05-30T04:50:55.216Z,1011.6
2017-05-30T04:51:58.055Z,1011.5
2017-05-30T04:53:00.900Z,1011.6
2017-05-30T04:54:03.740Z,1011.6
2017-05-30T04:55:07.087Z,1011.6
2017-05-30T04:56:10.179Z,1011.5
2017-05-30T04:57:13.022Z,1011.5
2017-05-30T04:58:15.864Z,1011.5
2017-05-30T04:59:19.073Z,1011.5
2017-05-30T05:00:21.780Z,1011.5
2017-05-30T05:01:25.382Z,1011.5
2017-05-30T05:02:28.221Z,1011.4
2017-05-30T05:03:30.930Z,1011.5
2017-05-30T05:04:34.276Z,1011.4
2017-05-30T05:05:37.161Z,1011.4
2017-05-30T05:06:40.120Z,1011.4
2017-05-30T05:07:42.961Z,1011.4
2017-05-30T05:08:46.324Z,1011.4
2017-05-30T05:09:49.163Z,1011.4
2017-05-30T05:10:52.380Z,1011.4
2017-05-30T05:11:55.522Z,1011.4
2017-05-30T05:12:58.364Z,1011.4
2017-05-30T05:14:01.204Z,1011.4
2017-05-30T05:15:04.050Z,1011.4
2017-05-30T05:16:07.398Z,1011.4
2017-05-30T05:17:10.360Z,1011.4
2017-05-30T05:18:13.200Z,1011.4
2017-05-30T05:19:16.415Z,1011.4
2017-05-30T05:20:19.261Z,1011.3
2017-05-30T05:21:22.466Z,1011.4
2017-05-30T05:22:25.930Z,1011.3
2017-05-30T05:23:28.266Z,1011.4
2017-05-30T05:24:31.478Z,1011.4
2017-05-30T05:25:34.697Z,1011.4
2017-05-30T05:26:37.542Z,1011.4
2017-05-30T05:27:40.642Z,1011.4
2017-05-30T05:28:43.484Z,1011.4
2017-05-30T05:29:46.849Z,1011.4
2017-05-30T05:30:49.690Z,1011.4
2017-05-30T05:31:52.902Z,1011.4
2017-05-30T05:32:55.873Z,1011.4
2017-05-30T05:33:58.716Z,1011.4
2017-05-30T05:35:02.075Z,1011.5
2017-05-30T05:36:04.969Z,1011.5
2017-05-30T05:37:07.812Z,1011.5
2017-05-30T05:38:11.277Z,1011.5
2017-05-30T05:39:13.995Z,1011.4
2017-05-30T05:40:16.835Z,1011.5
2017-05-30T05:42:23.097Z,1011.5
2017-05-30T05:43:26.694Z,1011.5
2017-05-30T05:44:29.034Z,1011.4
2017-05-30T05:45:32.381Z,1011.5
2017-05-30T05:46:35.226Z,1011.5
2017-05-30T05:47:38.574Z,1011.5
2017-05-30T05:48:41.664Z,1011.5
2017-05-30T05:49:44.370Z,1011.5
2017-05-30T05:50:47.713Z,1011.5
2017-05-30T05:51:50.555Z,1011.5
2017-05-30T05:52:53.898Z,1011.5
2017-05-30T05:53:56.863Z,1011.5
2017-05-30T05:54:59.706Z,1011.5
2017-05-30T05:56:03.050Z,1011.6
2017-05-30T05:57:05.905Z,1011.5
2017-05-30T05:58:08.750Z,1011.6
2017-05-30T05:59:12.404Z,1011.6
2017-05-30T06:00:15.111Z,1011.6
2017-05-30T06:01:17.952Z,1011.7
2017-05-30T06:02:21.293Z,1011.6
2017-05-30T06:03:24.133Z,1011.7
2017-05-30T06:04:27.598Z,1011.6
2017-05-30T06:05:30.442Z,1011.7
2017-05-30T06:06:33.290Z,1011.7
2017-05-30T06:07:36.504Z,1011.8
2017-05-30T06:08:39.720Z,1011.8
2017-05-30T06:09:42.859Z,1011.8
2017-05-30T06:10:45.701Z,1011.9
2017-05-30T06:11:49.045Z,1011.9
2017-05-30T06:12:51.889Z,1012
2017-05-30T06:13:54.978Z,1012.1
2017-05-30T06:14:58.074Z,1012.2
2017-05-30T06:16:00.917Z,1012.2
2017-05-30T06:17:04.270Z,1012.2
2017-05-30T06:18:07.349Z,1012.3
2017-05-30T06:19:10.422Z,1012.3
2017-05-30T06:20:13.519Z,1012.2
2017-05-30T06:21:16.362Z,1012.2
2017-05-30T06:22:19.216Z,1012.2
2017-05-30T06:23:22.564Z,1012.3
2017-05-30T06:24:25.274Z,1012.3
2017-05-30T06:25:28.870Z,1012.3
2017-05-30T06:26:31.712Z,1012.4
2017-05-30T06:27:34.556Z,1012.3
2017-05-30T06:28:37.447Z,1012.4
2017-05-30T06:29:40.802Z,1012.4
2017-05-30T06:30:43.891Z,1012.5
2017-05-30T06:31:46.738Z,1012.5
2017-05-30T06:33:52.928Z,1012.5
2017-05-30T06:34:56.144Z,1012.6
2017-05-30T06:35:59.299Z,1012.6
2017-05-30T06:37:02.012Z,1012.6
2017-05-30T06:38:05.087Z,1012.7
2017-05-30T06:39:07.927Z,1012.8
2017-05-30T06:40:11.275Z,1012.7
2017-05-30T06:41:14.369Z,1012.8
2017-05-30T06:42:17.078Z,1012.9
2017-05-30T06:43:20.420Z,1012.9
2017-05-30T06:44:23.259Z,1012.9
2017-05-30T06:45:26.468Z,1012.9
2017-05-30T06:46:29.432Z,1013
2017-05-30T06:47:32.641Z,1013.1
2017-05-30T06:48:35.488Z,1013
2017-05-30T06:49:38.329Z,1013.1
2017-05-30T06:50:41.671Z,1013.1
2017-05-30T06:51:44.629Z,1013.1
2017-05-30T06:52:47.841Z,1013.2
2017-05-30T06:53:50.682Z,1013.2
2017-05-30T06:54:53.528Z,1013.2
2017-05-30T06:55:56.881Z,1013.1
2017-05-30T06:56:59.977Z,1013.2
2017-05-30T06:58:02.816Z,1013.2
2017-05-30T06:59:05.657Z,1013.2
2017-05-30T07:00:09.055Z,1013.2
2017-05-30T07:01:11.900Z,1013.2
2017-05-30T07:02:15.414Z,1013.3
2017-05-30T07:03:18.269Z,1013.2
2017-05-30T07:04:20.978Z,1013.2
2017-05-30T07:05:24.336Z,1013.3
2017-05-30T07:06:27.184Z,1013.2
2017-05-30T07:07:30.643Z,1013.2
2017-05-30T07:08:33.346Z,1013.3
2017-05-30T07:09:36.187Z,1013.3
2017-05-30T07:10:39.532Z,1013.3
2017-05-30T07:11:42.372Z,1013.3
2017-05-30T07:12:45.462Z,1013.4
2017-05-30T07:13:48.309Z,1013.4
2017-05-30T07:14:51.664Z,1013.4
2017-05-30T07:15:54.507Z,1013.4
2017-05-30T07:16:57.352Z,1013.4
2017-05-30T07:18:00.964Z,1013.4
2017-05-30T07:19:03.821Z,1013.5
2017-05-30T07:20:06.662Z,1013.5
2017-05-30T07:21:09.515Z,1013.5
2017-05-30T07:22:12.725Z,1013.6
2017-05-30T07:23:15.868Z,1013.6
2017-05-30T07:24:18.575Z,1013.6
2017-05-30T07:25:21.784Z,1013.7
2017-05-30T07:26:25.000Z,1013.7
2017-05-30T07:27:27.709Z,1013.7
2017-05-30T07:28:31.185Z,1013.7
2017-05-30T07:29:33.757Z,1013.7
2017-05-30T07:30:36.968Z,1013.7
2017-05-30T07:31:40.180Z,1013.7
2017-05-30T07:32:43.027Z,1013.7
2017-05-30T07:33:46.131Z,1013.7
2017-05-30T07:34:48.974Z,1013.8
2017-05-30T07:35:52.323Z,1013.8
2017-05-30T07:36:55.168Z,1013.8
2017-05-30T07:37:58.380Z,1013.8
2017-05-30T07:39:01.476Z,1013.8
2017-05-30T07:40:04.320Z,1013.8
2017-05-30T07:41:07.027Z,1013.8
2017-05-30T07:42:10.243Z,1013.9
2017-05-30T07:43:13.085Z,1013.9
2017-05-30T07:45:19.513Z,1013.9
2017-05-30T07:46:22.228Z,1013.9
2017-05-30T07:47:25.441Z,1013.9
2017-05-30T07:48:28.285Z,1013.9
2017-05-30T07:49:31.505Z,1013.9
2017-05-30T07:50:34.606Z,1013.9
2017-05-30T07:51:37.445Z,1013.9
2017-05-30T07:52:40.287Z,1013.9
2017-05-30T07:53:43.696Z,1013.9
2017-05-30T07:54:46.557Z,1013.8
2017-05-30T07:55:49.662Z,1013.8
2017-05-30T07:56:52.501Z,1013.8
2017-05-30T07:57:55.714Z,1013.8
2017-05-30T07:58:58.557Z,1013.9
2017-05-30T08:00:01.910Z,1013.9
2017-05-30T08:01:04.999Z,1013.9
2017-05-30T08:02:07.948Z,1013.9
2017-05-30T08:03:10.662Z,1013.9
2017-05-30T08:04:14.009Z,1013.9
2017-05-30T08:05:16.717Z,1013.8
2017-05-30T08:07:23.276Z,1013.8
2017-05-30T08:08:26.115Z,1013.8
2017-05-30T08:09:28.963Z,1013.8
2017-05-30T08:10:32.172Z,1013.8
2017-05-30T08:11:34.891Z,1013.7
2017-05-30T08:12:38.486Z,1013.7
2017-05-30T08:13:41.330Z,1013.7
2017-05-30T08:14:44.172Z,1013.7
2017-05-30T08:16:50.443Z,1013.6
2017-05-30T08:17:53.540Z,1013.7
2017-05-30T08:18:56.385Z,1013.6
2017-05-30T08:19:59.600Z,1013.6
2017-05-30T08:21:02.443Z,1013.5
2017-05-30T08:22:05.820Z,1013.5
2017-05-30T08:23:08.917Z,1013.5
2017-05-30T08:24:11.761Z,1013.6
2017-05-30T08:25:14.975Z,1013.5
2017-05-30T08:26:17.821Z,1013.5
2017-05-30T08:27:21.166Z,1013.5
2017-05-30T08:28:24.259Z,1013.5
2017-05-30T08:29:27.109Z,1013.5
2017-05-30T08:30:30.455Z,1013.5
2017-05-30T08:31:33.348Z,1013.4
2017-05-30T08:32:36.190Z,1013.5
2017-05-30T08:33:39.657Z,1013.4
2017-05-30T08:34:42.231Z,1013.3
2017-05-30T08:35:45.579Z,1013.4
2017-05-30T08:36:48.800Z,1013.3
2017-05-30T08:37:51.640Z,1013.3
2017-05-30T08:38:55.103Z,1013.3
2017-05-30T08:39:57.946Z,1013.3
2017-05-30T08:41:01.030Z,1013.3
2017-05-30T08:42:03.869Z,1013.3
2017-05-30T08:43:07.082Z,1013.3
2017-05-30T08:44:10.098Z,1013.3
2017-05-30T08:45:12.939Z,1013.2
2017-05-30T08:46:15.783Z,1013.2
2017-05-30T08:47:18.862Z,1013.2
2017-05-30T08:48:22.076Z,1013.2
2017-05-30T08:49:25.184Z,1013.2
2017-05-30T08:50:28.403Z,1013.2
2017-05-30T08:51:31.104Z,1013.1
2017-05-30T08:52:34.318Z,1013.1
2017-05-30T08:53:37.532Z,1013.1
2017-05-30T08:54:40.628Z,1013
2017-05-30T08:55:43.473Z,1013.1
2017-05-30T08:56:46.318Z,1013
2017-05-30T08:57:49.662Z,1013
2017-05-30T08:58:52.503Z,1013
2017-05-30T08:59:56.008Z,1013
2017-05-30T09:00:58.856Z,1013
2017-05-30T09:02:01.585Z,1012.9
2017-05-30T09:03:04.932Z,1013
2017-05-30T09:04:07.777Z,1012.9
2017-05-30T09:05:11.246Z,1012.9
2017-05-30T09:06:13.951Z,1012.9
2017-05-30T09:07:17.162Z,1013
2017-05-30T09:08:20.007Z,1012.9
2017-05-30T09:09:22.861Z,1012.9
2017-05-30T09:10:26.458Z,1012.9
2017-05-30T09:11:29.301Z,1012.9
2017-05-30T09:12:32.145Z,1013
2017-05-30T09:13:35.490Z,1013
2017-05-30T09:14:38.203Z,1013.1
2017-05-30T09:15:41.798Z,1013.2
2017-05-30T09:16:44.642Z,1013.2
2017-05-30T09:17:47.501Z,1013.3
2017-05-30T09:18:50.352Z,1013.3
2017-05-30T09:19:53.696Z,1013.3
2017-05-30T09:20:56.793Z,1013.4
2017-05-30T09:21:59.687Z,1013.4
2017-05-30T09:23:02.530Z,1013.4
2017-05-30T09:24:05.609Z,1013.4
2017-05-30T09:25:08.957Z,1013.4
2017-05-30T09:26:12.054Z,1013.4
2017-05-30T09:27:14.765Z,1013.4
2017-05-30T09:28:18.110Z,1013.3
2017-05-30T09:29:21.330Z,1013.2
2017-05-30T09:30:24.174Z,1013.2
2017-05-30T09:31:27.643Z,1013.2
2017-05-30T09:32:30.362Z,1013.2
2017-05-30T09:33:33.205Z,1013
2017-05-30T09:34:36.280Z,1013.1
2017-05-30T09:35:39.487Z,1013
2017-05-30T09:36:43.083Z,1013
2017-05-30T09:37:45.786Z,1013
2017-05-30T09:38:48.628Z,1012.9
2017-05-30T09:39:51.840Z,1012.9
2017-05-30T09:40:55.051Z,1012.8
2017-05-30T09:41:58.146Z,1012.8
2017-05-30T09:43:00.987Z,1012.8
2017-05-30T09:44:04.328Z,1012.7
2017-05-30T09:45:07.041Z,1012.7
2017-05-30T09:46:10.386Z,1012.7
2017-05-30T09:47:13.486Z,1012.7
2017-05-30T09:48:16.329Z,1012.7
2017-05-30T09:49:19.175Z,1012.7
2017-05-30T09:50:22.387Z,1012.7
2017-05-30T09:51:25.599Z,1012.7
2017-05-30T09:52:28.696Z,1012.7
2017-05-30T09:53:31.539Z,1012.7
2017-05-30T09:54:34.887Z,1012.8
2017-05-30T09:55:37.592Z,1012.8
2017-05-30T09:56:40.798Z,1012.8
2017-05-30T09:57:44.396Z,1012.8
2017-05-30T09:58:47.239Z,1012.8
2017-05-30T09:59:50.076Z,1013
2017-05-30T10:00:53.420Z,1012.9
2017-05-30T10:01:55.993Z,1012.9
2017-05-30T10:02:59.592Z,1012.8
2017-05-30T10:04:02.294Z,1012.8
2017-05-30T10:05:05.507Z,1012.8
2017-05-30T10:06:08.395Z,1012.8
2017-05-30T10:07:11.744Z,1012.9
2017-05-30T10:08:14.842Z,1013
2017-05-30T10:09:17.685Z,1013.1
2017-05-30T10:10:20.523Z,1013.2
2017-05-30T10:11:23.739Z,1013.3
2017-05-30T10:12:26.954Z,1013.4
2017-05-30T10:13:30.051Z,1013.5
2017-05-30T10:14:32.894Z,1013.7
2017-05-30T10:15:35.734Z,1013.8
2017-05-30T10:16:38.947Z,1013.9
2017-05-30T10:17:41.787Z,1013.9
2017-05-30T10:18:45.247Z,1013.9
2017-05-30T10:19:48.086Z,1013.9
2017-05-30T10:20:51.300Z,1013.8
2017-05-30T10:21:54.006Z,1013.9
2017-05-30T10:22:57.219Z,1013.8
2017-05-30T10:24:00.315Z,1013.9
2017-05-30T10:25:03.164Z,1013.8
2017-05-30T10:26:06.055Z,1013.8
2017-05-30T10:27:09.400Z,1013.9
2017-05-30T10:28:12.101Z,1013.9
2017-05-30T10:29:15.615Z,1013.9
2017-05-30T10:31:21.239Z,1014
2017-05-30T10:32:24.643Z,1014
2017-05-30T10:33:27.484Z,1014
2017-05-30T10:34:30.441Z,1014
2017-05-30T10:35:33.279Z,1014
2017-05-30T10:36:36.492Z,1014
2017-05-30T10:37:39.202Z,1014
2017-05-30T10:38:42.552Z,1014
2017-05-30T10:39:45.508Z,1014.1
2017-05-30T10:40:48.212Z,1014
2017-05-30T10:41:51.563Z,1014
2017-05-30T10:42:54.405Z,1014
2017-05-30T10:43:57.108Z,1014
2017-05-30T10:45:00.432Z,1013.8
2017-05-30T10:46:03.274Z,1013.9
2017-05-30T10:47:06.115Z,1013.8
2017-05-30T10:48:09.461Z,1013.8
2017-05-30T10:49:12.176Z,1013.7
2017-05-30T10:50:15.267Z,1013.6
2017-05-30T10:51:17.978Z,1013.6
2017-05-30T10:52:21.188Z,1013.5
2017-05-30T10:53:24.030Z,1013.5
2017-05-30T10:54:27.106Z,1013.5
2017-05-30T10:55:30.567Z,1013.5
2017-05-30T10:56:32.899Z,1013.5
2017-05-30T10:57:36.114Z,1013.5
2017-05-30T10:58:38.828Z,1013.4
2017-05-30T10:59:42.175Z,1013.4
2017-05-30T11:00:45.132Z,1013.4
2017-05-30T11:01:47.971Z,1013.4
2017-05-30T11:02:50.808Z,1013.4
2017-05-30T11:03:54.013Z,1013.3
2017-05-30T11:04:56.857Z,1013.3
2017-05-30T11:05:59.946Z,1013.3
2017-05-30T11:07:02.785Z,1013.2
2017-05-30T11:08:05.999Z,1013.2
2017-05-30T11:09:08.844Z,1013.1
2017-05-30T11:10:11.684Z,1013.1
2017-05-30T11:11:15.145Z,1013.1
2017-05-30T11:12:17.478Z,1013
2017-05-30T11:13:20.696Z,1013.1
2017-05-30T11:14:23.540Z,1013.1
2017-05-30T11:15:26.378Z,1013
2017-05-30T11:16:29.662Z,1013
2017-05-30T11:17:32.504Z,1012.9
2017-05-30T11:18:35.450Z,1013
2017-05-30T11:19:38.296Z,1013.1
2017-05-30T11:20:41.636Z,1013.1
2017-05-30T11:21:44.730Z,1013.1
2017-05-30T11:22:47.576Z,1013.1
2017-05-30T11:23:50.285Z,1013.1
2017-05-30T11:24:53.130Z,1013.2
2017-05-30T11:25:56.342Z,1013.1
2017-05-30T11:26:59.434Z,1013.2
2017-05-30T11:28:02.277Z,1013.2
2017-05-30T11:29:05.123Z,1013.1
2017-05-30T11:30:07.970Z,1013.1
2017-05-30T11:31:11.181Z,1013.1
2017-05-30T11:32:14.329Z,1013
2017-05-30T11:33:17.036Z,1013.1
2017-05-30T11:34:20.256Z,1013.1
2017-05-30T11:35:23.098Z,1013.2
2017-05-30T11:36:25.939Z,1013.1
2017-05-30T11:37:29.035Z,1013.2
2017-05-30T11:38:31.875Z,1013.1
2017-05-30T11:39:35.090Z,1013.1
2017-05-30T11:40:37.933Z,1013.1
2017-05-30T11:41:40.777Z,1013.2
2017-05-30T11:42:44.432Z,1013.2
2017-05-30T11:43:46.641Z,1013.2
2017-05-30T11:44:49.991Z,1013.2
2017-05-30T11:45:52.702Z,1013.2
2017-05-30T11:46:56.046Z,1013.2
2017-05-30T11:47:59.137Z,1013.2
2017-05-30T11:49:01.976Z,1013.2
2017-05-30T11:50:04.816Z,1013.2
2017-05-30T11:51:08.035Z,1013.2
2017-05-30T11:52:11.108Z,1013.2
2017-05-30T11:54:17.121Z,1013.2
2017-05-30T11:55:20.004Z,1013.2
2017-05-30T11:56:22.847Z,1013.1
2017-05-30T11:57:25.696Z,1013.2
2017-05-30T11:58:28.911Z,1013.1
2017-05-30T11:59:32.055Z,1013.1
2017-05-30T12:00:34.764Z,1013.1
2017-05-30T12:01:38.116Z,1013.1
2017-05-30T12:02:40.820Z,1013
2017-05-30T12:03:43.894Z,1013.1
2017-05-30T12:04:47.356Z,1013.1
2017-05-30T12:05:50.062Z,1013.1
2017-05-30T12:06:53.273Z,1013.1
2017-05-30T12:07:56.114Z,1013.1
2017-05-30T12:08:58.952Z,1013.1
2017-05-30T12:10:02.553Z,1013.1
2017-05-30T12:11:05.263Z,1013.1
2017-05-30T12:12:07.971Z,1013.1
2017-05-30T12:13:11.046Z,1013.1
2017-05-30T12:14:14.258Z,1013.1
2017-05-30T12:15:17.350Z,1013.1
2017-05-30T12:16:20.190Z,1013.1
2017-05-30T12:17:23.535Z,1013.1
2017-05-30T12:18:26.380Z,1013.1
2017-05-30T12:19:29.218Z,1013
2017-05-30T12:20:32.876Z,1013
2017-05-30T12:21:35.720Z,1013
2017-05-30T12:22:38.575Z,1013
2017-05-30T12:23:41.420Z,1012.9
2017-05-30T12:24:44.765Z,1013
2017-05-30T12:25:47.477Z,1012.9
2017-05-30T12:26:50.826Z,1012.9
2017-05-30T12:27:53.663Z,1012.9
2017-05-30T12:28:57.008Z,1012.9
2017-05-30T12:29:59.846Z,1012.8
2017-05-30T12:31:02.945Z,1012.8
2017-05-30T12:32:05.791Z,1012.8
2017-05-30T12:33:09.002Z,1012.8
2017-05-30T12:34:12.213Z,1012.8
2017-05-30T12:35:14.918Z,1012.8
2017-05-30T12:36:18.377Z,1012.8
2017-05-30T12:37:21.222Z,1012.8
2017-05-30T12:38:24.067Z,1012.7
2017-05-30T12:39:27.413Z,1012.7
2017-05-30T12:40:30.256Z,1012.7
2017-05-30T12:41:33.349Z,1012.6
2017-05-30T12:42:36.189Z,1012.7
2017-05-30T12:43:39.404Z,1012.7
2017-05-30T12:44:42.246Z,1012.7
2017-05-30T12:45:45.591Z,1012.7
2017-05-30T12:46:48.684Z,1012.7
2017-05-30T12:47:51.389Z,1012.7
2017-05-30T12:48:54.468Z,1012.6
2017-05-30T12:49:57.675Z,1012.7
2017-05-30T12:51:00.519Z,1012.7
2017-05-30T12:52:04.030Z,1012.6
2017-05-30T12:53:06.735Z,1012.6
2017-05-30T12:54:09.949Z,1012.6
2017-05-30T12:55:12.790Z,1012.6
2017-05-30T12:56:16.002Z,1012.7
2017-05-30T12:57:19.096Z,1012.6
2017-05-30T12:58:21.938Z,1012.6
2017-05-30T12:59:25.288Z,1012.6
2017-05-30T13:00:28.132Z,1012.6
2017-05-30T13:01:30.969Z,1012.6
2017-05-30T13:02:34.433Z,1012.7
2017-05-30T13:03:37.135Z,1012.6
2017-05-30T13:04:40.476Z,1012.6
2017-05-30T13:05:43.374Z,1012.6
2017-05-30T13:06:46.086Z,1012.6
2017-05-30T13:07:49.419Z,1012.6
2017-05-30T13:08:52.261Z,1012.6
2017-05-30T13:09:55.470Z,1012.6
2017-05-30T13:10:58.308Z,1012.5
2017-05-30T13:12:01.656Z,1012.6
2017-05-30T13:13:04.617Z,1012.5
2017-05-30T13:14:07.459Z,1012.6
2017-05-30T13:15:10.671Z,1012.5
2017-05-30T13:16:13.512Z,1012.5
2017-05-30T13:17:16.856Z,1012.5
2017-05-30T13:18:19.821Z,1012.5
2017-05-30T13:19:22.671Z,1012.5
2017-05-30T13:20:26.016Z,1012.5
2017-05-30T13:21:28.860Z,1012.6
2017-05-30T13:22:31.702Z,1012.6
2017-05-30T13:23:35.165Z,1012.6
2017-05-30T13:24:38.009Z,1012.5
2017-05-30T13:25:40.850Z,1012.5
2017-05-30T13:26:44.190Z,1012.5
2017-05-30T13:27:46.896Z,1012.5